Time;durP1;ratioP1;P1;durP2;ratioP2;P2;SDS_P1;SDS_P2;PMS_P1;PMS_P2;Temp;Humidity;BMP_temperature;BMP_pressure;BME280_temperature;BME280_humidity;BME280_pressure;Samples;Min_cycle;Max_cycle;Signal;HPM_P1;HPM_P2
2023/06/15 00:03:19;;;;;;;5.88;4.20;;;;;;;;;;10066592;29;20046;-67
2023/06/15 00:08:16;;;;;;;6.10;3.97;;;;;;;;;;10070051;29;20135;-67
2023/06/15 00:13:15;;;;;;;4.70;3.88;;;;;;;;;;10065221;29;20066;-67
2023/06/15 00:18:12;;;;;;;6.00;4.30;;;;;;;;;;10059802;28;20047;-67
2023/06/15 00:23:09;;;;;;;5.75;4.53;;;;;;;;;;10065098;28;20465;-67
2023/06/15 00:28:05;;;;;;;5.85;4.25;;;;;;;;;;10054930;29;20047;-67
2023/06/15 00:33:02;;;;;;;5.25;4.00;;;;;;;;;;10067315;29;20063;-67
2023/06/15 00:37:58;;;;;;;5.68;4.60;;;;;;;;;;10065219;29;20055;-67
2023/06/15 00:42:55;;;;;;;7.53;3.78;;;;;;;;;;10065413;29;20043;-67
2023/06/15 00:47:51;;;;;;;7.88;4.10;;;;;;;;;;10069189;29;20082;-67
2023/06/15 00:52:49;;;;;;;5.35;4.05;;;;;;;;;;10065360;29;20480;-67
2023/06/15 00:57:49;;;;;;;4.82;4.00;;;;;;;;;;10070950;28;20113;-68
2023/06/15 01:02:48;;;;;;;6.05;4.03;;;;;;;;;;10067549;29;20055;-67
2023/06/15 01:07:47;;;;;;;6.75;3.97;;;;;;;;;;10061743;29;20094;-67
2023/06/15 01:12:45;;;;;;;5.68;4.32;;;;;;;;;;10059845;29;20154;-68
2023/06/15 01:17:45;;;;;;;7.32;4.15;;;;;;;;;;10072011;29;20454;-68
2023/06/15 01:22:55;;;;;;;5.65;4.68;;;;;;;;;;10057766;29;20047;-67
2023/06/15 01:28:02;;;;;;;4.68;3.72;;;;;;;;;;10069937;29;20050;-68
2023/06/15 01:32:59;;;;;;;7.30;4.43;;;;;;;;;;10056022;29;20107;-68
2023/06/15 01:37:55;;;;;;;4.85;3.95;;;;;;;;;;10072854;28;20477;-67
2023/06/15 01:42:51;;;;;;;7.50;4.32;;;;;;;;;;10072671;28;20047;-69
2023/06/15 01:47:49;;;;;;;6.53;4.45;;;;;;;;;;10073549;28;20140;-69
2023/06/15 01:52:45;;;;;;;6.13;4.22;;;;;;;;;;10052111;29;20055;-68
2023/06/15 01:57:42;;;;;;;5.97;4.30;;;;;;;;;;10068219;29;20082;-69
2023/06/15 02:02:40;;;;;;;13.68;4.70;;;;;;;;;;10060411;29;20057;-68
2023/06/15 02:07:36;;;;;;;5.85;4.70;;;;;;;;;;10072582;28;20523;-68
2023/06/15 02:12:33;;;;;;;5.82;4.35;;;;;;;;;;10059866;29;20106;-68
2023/06/15 02:17:33;;;;;;;5.93;4.55;;;;;;;;;;10071460;29;20536;-70
2023/06/15 02:22:30;;;;;;;10.25;4.65;;;;;;;;;;10064143;29;20472;-67
2023/06/15 02:27:26;;;;;;;5.18;4.65;;;;;;;;;;10064158;29;20062;-66
2023/06/15 02:32:36;;;;;;;6.53;4.60;;;;;;;;;;10072963;29;20043;-66
2023/06/15 02:37:32;;;;;;;6.22;4.20;;;;;;;;;;10068612;29;20077;-68
2023/06/15 02:42:31;;;;;;;5.25;4.75;;;;;;;;;;10058332;28;20130;-68
2023/06/15 02:47:28;;;;;;;6.03;4.50;;;;;;;;;;10063136;28;20119;-68
2023/06/15 02:52:30;;;;;;;5.63;4.50;;;;;;;;;;10064198;29;20134;-68
2023/06/15 02:57:26;;;;;;;;;;;;;;;;;;10056662;28;20102;-67
2023/06/15 03:02:23;;;;;;;8.18;5.68;;;;;;;;;;10069788;29;20304;-68
2023/06/15 03:07:23;;;;;;;6.97;4.60;;;;;;;;;;10061683;29;20047;-68
2023/06/15 03:12:20;;;;;;;8.93;4.85;;;;;;;;;;10046480;29;20055;-68
2023/06/15 03:17:17;;;;;;;5.30;4.47;;;;;;;;;;10066720;28;20043;-67
2023/06/15 03:22:14;;;;;;;7.95;4.78;;;;;;;;;;10071638;28;20083;-66
2023/06/15 03:27:11;;;;;;;5.38;4.38;;;;;;;;;;10044510;29;20126;-66
2023/06/15 03:32:08;;;;;;;6.53;4.68;;;;;;;;;;10022623;29;20050;-66
2023/06/15 03:37:05;;;;;;;6.18;4.75;;;;;;;;;;10013936;29;20497;-67
2023/06/15 03:42:02;;;;;;;5.57;4.85;;;;;;;;;;10033292;28;20061;-67
2023/06/15 03:46:58;;;;;;;5.68;4.72;;;;;;;;;;10064126;28;20058;-67
2023/06/15 03:51:55;;;;;;;6.03;4.32;;;;;;;;;;10050277;28;20051;-68
2023/06/15 03:56:51;;;;;;;5.28;4.78;;;;;;;;;;10040727;28;20067;-68
2023/06/15 04:01:47;;;;;;;5.40;4.43;;;;;;;;;;10024855;29;20086;-68
2023/06/15 04:06:47;;;;;;;6.03;5.40;;;;;;;;;;9988167;29;20521;-67
2023/06/15 04:11:43;;;;;;;6.68;5.15;;;;;;;;;;10008505;29;20536;-67
2023/06/15 04:16:39;;;;;;;6.80;5.13;;;;;;;;;;10020532;29;20107;-67
2023/06/15 04:21:36;;;;;;;6.22;5.00;;;;;;;;;;10033375;29;20047;-67
2023/06/15 04:26:33;;;;;;;6.95;5.13;;;;;;;;;;10066965;29;20062;-67
2023/06/15 04:31:31;;;;;;;5.80;5.13;;;;;;;;;;10060616;28;20106;-68
2023/06/15 04:36:31;;;;;;;9.40;5.78;;;;;;;;;;10046621;29;20044;-70
2023/06/15 04:41:29;;;;;;;8.38;5.30;;;;;;;;;;10026378;29;20461;-70
2023/06/15 04:46:27;;;;;;;6.47;5.32;;;;;;;;;;10022033;29;20059;-70
2023/06/15 04:51:24;;;;;;;7.28;5.75;;;;;;;;;;10022704;29;20073;-71
2023/06/15 04:56:21;;;;;;;7.57;5.78;;;;;;;;;;10045101;29;20721;-71
2023/06/15 05:01:18;;;;;;;7.85;6.35;;;;;;;;;;10074455;29;20054;-71
2023/06/15 05:06:16;;;;;;;7.85;5.82;;;;;;;;;;10073957;28;20039;-71
2023/06/15 05:11:12;;;;;;;9.90;7.00;;;;;;;;;;10073823;28;20051;-71
2023/06/15 05:16:09;;;;;;;11.75;6.70;;;;;;;;;;10069526;29;20051;-70
2023/06/15 05:21:05;;;;;;;11.32;6.60;;;;;;;;;;10059157;29;20046;-70
2023/06/15 05:26:04;;;;;;;9.32;6.57;;;;;;;;;;10067563;28;20077;-70
2023/06/15 05:31:16;;;;;;;8.33;7.30;;;;;;;;;;10061788;29;20083;-70
2023/06/15 05:36:12;;;;;;;10.05;6.30;;;;;;;;;;10060830;29;20086;-70
2023/06/15 05:41:29;;;;;;;10.63;6.55;;;;;;;;;;10066946;29;20626;-70
2023/06/15 05:46:25;;;;;;;9.45;6.70;;;;;;;;;;10071064;29;20497;-71
2023/06/15 05:51:21;;;;;;;9.70;6.43;;;;;;;;;;10072178;29;20067;-71
2023/06/15 05:56:18;;;;;;;7.15;5.95;;;;;;;;;;10045965;28;20132;-71
2023/06/15 06:01:14;;;;;;;7.03;6.28;;;;;;;;;;10052267;29;20449;-71
2023/06/15 06:06:11;;;;;;;7.10;6.40;;;;;;;;;;10071093;29;20627;-71
2023/06/15 06:11:07;;;;;;;9.43;6.88;;;;;;;;;;10066149;28;20062;-71
2023/06/15 06:16:04;;;;;;;7.05;6.35;;;;;;;;;;10060118;28;20517;-71
2023/06/15 06:21:00;;;;;;;10.93;6.80;;;;;;;;;;10065814;29;20104;-71
2023/06/15 06:25:56;;;;;;;9.50;7.07;;;;;;;;;;10059917;28;20575;-71
2023/06/15 06:30:53;;;;;;;10.85;6.93;;;;;;;;;;10032508;29;20067;-70
2023/06/15 06:35:49;;;;;;;7.20;6.50;;;;;;;;;;10028548;29;20048;-71
2023/06/15 06:40:46;;;;;;;10.25;6.88;;;;;;;;;;10030795;29;20047;-71
2023/06/15 06:45:42;;;;;;;7.50;6.80;;;;;;;;;;10061555;28;20070;-69
2023/06/15 06:50:38;;;;;;;10.40;6.47;;;;;;;;;;10050012;28;20119;-69
2023/06/15 06:55:34;;;;;;;8.70;6.80;;;;;;;;;;10025846;29;20051;-69
2023/06/15 07:00:31;;;;;;;9.38;6.75;;;;;;;;;;10024511;29;20399;-69
2023/06/15 07:05:28;;;;;;;9.18;6.25;;;;;;;;;;10069759;29;20495;-74
2023/06/15 07:10:24;;;;;;;8.50;6.32;;;;;;;;;;10070421;28;20047;-69
2023/06/15 07:15:22;;;;;;;9.23;6.10;;;;;;;;;;10068033;29;20044;-69
2023/06/15 07:20:20;;;;;;;8.65;5.65;;;;;;;;;;10066532;29;20537;-69
2023/06/15 07:25:16;;;;;;;10.77;6.78;;;;;;;;;;10063377;29;20055;-70
2023/06/15 07:30:13;;;;;;;11.48;7.90;;;;;;;;;;10059823;29;20053;-69
2023/06/15 07:35:11;;;;;;;9.07;7.07;;;;;;;;;;10029366;29;20693;-70
2023/06/15 07:40:07;;;;;;;8.05;6.72;;;;;;;;;;10006919;29;20059;-70
2023/06/15 07:45:04;;;;;;;9.50;7.35;;;;;;;;;;10013476;29;20055;-69
2023/06/15 07:50:00;;;;;;;13.68;8.27;;;;;;;;;;9997379;29;20482;-69
2023/06/15 07:54:57;;;;;;;8.85;6.70;;;;;;;;;;10000462;29;20439;-69
2023/06/15 07:59:53;;;;;;;8.60;7.25;;;;;;;;;;9982439;29;20056;-70
2023/06/15 08:04:50;;;;;;;9.27;7.68;;;;;;;;;;10002213;29;20056;-69
2023/06/15 08:09:46;;;;;;;9.40;6.93;;;;;;;;;;10024291;29;20395;-69
2023/06/15 08:14:42;;;;;;;9.10;7.30;;;;;;;;;;10057193;29;20148;-69
2023/06/15 08:19:39;;;;;;;9.93;6.28;;;;;;;;;;10050555;29;20079;-69
2023/06/15 08:24:35;;;;;;;10.20;7.00;;;;;;;;;;10060209;29;20517;-69
2023/06/15 08:29:32;;;;;;;8.68;7.78;;;;;;;;;;10058638;29;20465;-70
2023/06/15 08:34:28;;;;;;;9.15;7.10;;;;;;;;;;10033981;29;20059;-70
2023/06/15 08:39:24;;;;;;;10.07;7.70;;;;;;;;;;10062906;29;20050;-71
2023/06/15 08:44:21;;;;;;;10.93;7.75;;;;;;;;;;10063244;29;20506;-70
2023/06/15 08:49:17;;;;;;;9.07;7.90;;;;;;;;;;10045411;28;20090;-70
2023/06/15 08:54:18;;;;;;;8.48;7.53;;;;;;;;;;10055675;28;20043;-70
2023/06/15 08:59:15;;;;;;;7.80;6.47;;;;;;;;;;10049483;29;20488;-69
2023/06/15 09:04:11;;;;;;;9.43;6.95;;;;;;;;;;10061060;29;20077;-70
2023/06/15 09:09:09;;;;;;;7.32;6.50;;;;;;;;;;10040789;29;20044;-69
2023/06/15 09:14:11;;;;;;;7.63;6.90;;;;;;;;;;10052609;29;20103;-70
2023/06/15 09:19:13;;;;;;;8.32;6.72;;;;;;;;;;10064945;28;20072;-69
2023/06/15 09:24:13;;;;;;;8.65;6.82;;;;;;;;;;10073058;29;20109;-70
2023/06/15 09:29:11;;;;;;;7.32;6.72;;;;;;;;;;10063829;29;20046;-69
2023/06/15 09:34:11;;;;;;;9.15;6.32;;;;;;;;;;10038950;29;20518;-69
2023/06/15 09:39:11;;;;;;;7.68;6.97;;;;;;;;;;10032912;29;20114;-69
2023/06/15 09:44:09;;;;;;;7.40;6.80;;;;;;;;;;10063004;29;20733;-69
2023/06/15 09:49:18;;;;;;;8.82;6.50;;;;;;;;;;10067283;29;20043;-69
2023/06/15 09:54:16;;;;;;;11.43;7.07;;;;;;;;;;10068577;28;20039;-69
2023/06/15 09:59:12;;;;;;;8.13;6.53;;;;;;;;;;10071237;29;20712;-70
2023/06/15 10:04:09;;;;;;;6.88;6.18;;;;;;;;;;10033030;29;20047;-70
2023/06/15 10:09:09;;;;;;;16.52;6.65;;;;;;;;;;10026921;29;20044;-70
2023/06/15 10:14:09;;;;;;;12.35;7.50;;;;;;;;;;10029293;29;20040;-69
2023/06/15 10:19:10;;;;;;;8.02;7.22;;;;;;;;;;10019903;29;20059;-70
2023/06/15 10:24:14;;;;;;;8.43;6.97;;;;;;;;;;10017274;29;20065;-70
2023/06/15 10:29:32;;;;;;;7.80;6.95;;;;;;;;;;10023888;29;20574;-72
2023/06/15 10:34:38;;;;;;;7.40;6.35;;;;;;;;;;10025981;29;20189;-70
2023/06/15 10:39:35;;;;;;;8.88;6.72;;;;;;;;;;10047374;28;20056;-70
2023/06/15 10:44:32;;;;;;;11.70;7.90;;;;;;;;;;10029408;29;20055;-69
2023/06/15 10:49:31;;;;;;;8.45;7.28;;;;;;;;;;10022371;29;20150;-69
2023/06/15 10:54:28;;;;;;;8.50;7.30;;;;;;;;;;10019597;29;20036;-69
2023/06/15 10:59:33;;;;;;;11.30;7.03;;;;;;;;;;10031099;29;20075;-69
2023/06/15 11:04:31;;;;;;;12.70;6.80;;;;;;;;;;10011430;29;20071;-70
2023/06/15 11:09:29;;;;;;;10.02;6.53;;;;;;;;;;10029926;29;20059;-70
2023/06/15 11:14:31;;;;;;;10.93;6.88;;;;;;;;;;10032044;29;20039;-70
2023/06/15 11:19:32;;;;;;;8.30;7.47;;;;;;;;;;10024505;29;20060;-69
2023/06/15 11:24:33;;;;;;;7.88;7.00;;;;;;;;;;10028976;29;20060;-70
2023/06/15 11:29:37;;;;;;;8.68;7.78;;;;;;;;;;9997139;29;20514;-69
2023/06/15 11:34:35;;;;;;;10.18;8.20;;;;;;;;;;10039270;29;20055;-69
2023/06/15 11:39:31;;;;;;;7.78;7.07;;;;;;;;;;10030471;29;20091;-70
2023/06/15 11:44:28;;;;;;;9.82;7.53;;;;;;;;;;10027890;29;20083;-70
2023/06/15 11:49:32;;;;;;;8.75;7.22;;;;;;;;;;10023283;29;20177;-70
2023/06/15 11:54:32;;;;;;;8.07;7.28;;;;;;;;;;10026369;29;20047;-70
2023/06/15 11:59:47;;;;;;;9.55;7.78;;;;;;;;;;10015974;29;20054;-70
2023/06/15 12:04:45;;;;;;;7.80;6.55;;;;;;;;;;10031128;29;20126;-69
2023/06/15 12:09:42;;;;;;;8.15;6.90;;;;;;;;;;10027300;29;20063;-71
2023/06/15 12:14:41;;;;;;;7.63;6.40;;;;;;;;;;10029036;29;20645;-69
2023/06/15 12:19:37;;;;;;;9.50;6.55;;;;;;;;;;10010760;29;20466;-69
2023/06/15 12:24:38;;;;;;;11.23;7.05;;;;;;;;;;10018726;29;20486;-69
2023/06/15 12:29:36;;;;;;;7.95;7.22;;;;;;;;;;9982839;29;20056;-71
2023/06/15 12:34:33;;;;;;;8.93;6.68;;;;;;;;;;10020240;29;20060;-69
2023/06/15 12:39:30;;;;;;;7.20;6.50;;;;;;;;;;10026275;29;20847;-71
2023/06/15 12:44:26;;;;;;;6.82;6.22;;;;;;;;;;10050855;29;20457;-71
2023/06/15 12:49:22;;;;;;;10.45;6.68;;;;;;;;;;10065469;29;20047;-70
2023/06/15 12:54:19;;;;;;;10.27;7.03;;;;;;;;;;10065720;28;20043;-70
2023/06/15 12:59:15;;;;;;;8.15;6.93;;;;;;;;;;10061372;29;20063;-70
2023/06/15 13:04:12;;;;;;;7.88;7.10;;;;;;;;;;10075106;29;20051;-70
2023/06/15 13:09:08;;;;;;;8.60;7.13;;;;;;;;;;10071007;28;20169;-70
2023/06/15 13:14:05;;;;;;;7.50;6.80;;;;;;;;;;10073816;29;20043;-70
2023/06/15 13:19:02;;;;;;;7.82;7.05;;;;;;;;;;10066417;29;20093;-70
2023/06/15 13:23:58;;;;;;;7.93;6.85;;;;;;;;;;10075101;29;20674;-70
2023/06/15 13:28:55;;;;;;;8.88;6.63;;;;;;;;;;10071258;29;20039;-70
2023/06/15 13:33:52;;;;;;;7.20;6.50;;;;;;;;;;10072078;29;20078;-70
2023/06/15 13:38:48;;;;;;;8.38;6.50;;;;;;;;;;10062817;28;20043;-70
2023/06/15 13:43:45;;;;;;;7.45;6.75;;;;;;;;;;10070213;29;20782;-71
2023/06/15 13:48:41;;;;;;;7.72;6.60;;;;;;;;;;10071533;29;20035;-71
2023/06/15 13:53:37;;;;;;;8.88;7.45;;;;;;;;;;10069214;28;20051;-70
2023/06/15 13:58:34;;;;;;;8.57;6.90;;;;;;;;;;10072233;29;20055;-70
2023/06/15 14:03:30;;;;;;;8.73;7.03;;;;;;;;;;10072375;28;20281;-68
2023/06/15 14:08:27;;;;;;;8.18;6.85;;;;;;;;;;10070631;29;20076;-71
2023/06/15 14:13:26;;;;;;;8.07;7.28;;;;;;;;;;10072060;29;20043;-68
2023/06/15 14:18:23;;;;;;;7.80;6.45;;;;;;;;;;10071608;29;20059;-71
2023/06/15 14:23:19;;;;;;;9.15;7.10;;;;;;;;;;10072229;29;20045;-70
2023/06/15 14:28:16;;;;;;;8.27;7.47;;;;;;;;;;10068020;29;20067;-70
2023/06/15 14:33:12;;;;;;;7.95;7.22;;;;;;;;;;10059942;29;20110;-71
2023/06/15 14:38:08;;;;;;;8.70;7.90;;;;;;;;;;10063157;29;20059;-71
2023/06/15 14:43:05;;;;;;;9.80;6.55;;;;;;;;;;10075169;28;20051;-70
2023/06/15 14:48:02;;;;;;;8.30;6.90;;;;;;;;;;10070015;28;20643;-71
2023/06/15 14:52:58;;;;;;;10.00;7.68;;;;;;;;;;10066451;28;20489;-70
2023/06/15 14:57:55;;;;;;;12.85;7.70;;;;;;;;;;10063301;29;20179;-70
2023/06/15 15:02:51;;;;;;;12.15;7.10;;;;;;;;;;10057013;29;20058;-70
2023/06/15 15:07:48;;;;;;;7.63;6.93;;;;;;;;;;10063208;29;20051;-71
2023/06/15 15:12:45;;;;;;;8.02;6.78;;;;;;;;;;10068016;29;20059;-71
2023/06/15 15:17:42;;;;;;;9.23;6.38;;;;;;;;;;10058615;28;20113;-70
2023/06/15 15:22:39;;;;;;;8.85;7.20;;;;;;;;;;10069495;29;20055;-69
2023/06/15 15:27:35;;;;;;;9.73;7.65;;;;;;;;;;10059990;29;20047;-70
2023/06/15 15:32:32;;;;;;;9.85;7.50;;;;;;;;;;10061966;29;20047;-69
2023/06/15 15:37:28;;;;;;;8.55;7.63;;;;;;;;;;10062983;29;20055;-70
2023/06/15 15:42:24;;;;;;;11.48;8.02;;;;;;;;;;10064570;29;20058;-71
2023/06/15 15:47:21;;;;;;;12.18;7.50;;;;;;;;;;10059127;29;20070;-71
2023/06/15 15:52:17;;;;;;;13.00;7.00;;;;;;;;;;10066562;29;20548;-70
2023/06/15 15:57:14;;;;;;;9.20;7.78;;;;;;;;;;10066692;29;20058;-70
2023/06/15 16:02:10;;;;;;;7.50;6.78;;;;;;;;;;10061017;29;20054;-71
2023/06/15 16:07:07;;;;;;;7.22;6.15;;;;;;;;;;10060103;28;20130;-70
2023/06/15 16:12:03;;;;;;;8.00;7.20;;;;;;;;;;10065200;28;20046;-71
2023/06/15 16:17:00;;;;;;;7.63;6.85;;;;;;;;;;10063061;29;20043;-71
2023/06/15 16:22:00;;;;;;;9.05;7.63;;;;;;;;;;10059205;29;20040;-71
2023/06/15 16:26:56;;;;;;;8.13;7.32;;;;;;;;;;10056469;29;20039;-71
2023/06/15 16:31:52;;;;;;;8.10;7.18;;;;;;;;;;10059444;29;20090;-69
2023/06/15 16:36:49;;;;;;;9.20;7.07;;;;;;;;;;10054702;29;20137;-72
2023/06/15 16:41:46;;;;;;;8.20;7.40;;;;;;;;;;10070023;28;20078;-70
2023/06/15 16:46:42;;;;;;;9.23;7.75;;;;;;;;;;10044271;29;20129;-71
2023/06/15 16:51:38;;;;;;;7.72;6.97;;;;;;;;;;10058123;29;20103;-70
2023/06/15 16:56:35;;;;;;;10.10;7.47;;;;;;;;;;10046274;29;20076;-71
2023/06/15 17:01:32;;;;;;;7.88;7.18;;;;;;;;;;10024753;29;20075;-72
2023/06/15 17:06:28;;;;;;;9.98;7.95;;;;;;;;;;9986528;29;20561;-69
2023/06/15 17:11:25;;;;;;;8.95;7.75;;;;;;;;;;10017464;29;20063;-69
2023/06/15 17:16:21;;;;;;;8.18;7.15;;;;;;;;;;10007384;29;20080;-69
2023/06/15 17:21:19;;;;;;;9.13;7.10;;;;;;;;;;10016045;29;20043;-69
2023/06/15 17:26:15;;;;;;;8.85;8.15;;;;;;;;;;10026243;29;20475;-70
2023/06/15 17:31:12;;;;;;;12.75;7.63;;;;;;;;;;10019071;28;20043;-70
2023/06/15 17:36:09;;;;;;;8.85;7.95;;;;;;;;;;10046506;28;20039;-70
2023/06/15 17:41:09;;;;;;;8.30;7.40;;;;;;;;;;10042068;28;20142;-71
2023/06/15 17:46:06;;;;;;;8.63;7.73;;;;;;;;;;10070073;28;20106;-71
2023/06/15 17:51:03;;;;;;;7.93;7.22;;;;;;;;;;10064737;28;20585;-70
2023/06/15 17:56:00;;;;;;;8.23;7.43;;;;;;;;;;10053652;28;20125;-70
2023/06/15 18:00:56;;;;;;;11.20;7.63;;;;;;;;;;10053614;28;20044;-70
2023/06/15 18:05:53;;;;;;;8.00;6.95;;;;;;;;;;10009984;29;20052;-71
2023/06/15 18:10:49;;;;;;;10.07;7.50;;;;;;;;;;10033215;29;20751;-70
2023/06/15 18:15:46;;;;;;;7.82;6.93;;;;;;;;;;10033830;29;20048;-70
2023/06/15 18:20:43;;;;;;;8.35;7.10;;;;;;;;;;10029822;29;20051;-70
2023/06/15 18:25:39;;;;;;;8.18;6.65;;;;;;;;;;10021595;29;20079;-71
2023/06/15 18:30:36;;;;;;;8.10;6.00;;;;;;;;;;10062602;29;20055;-70
2023/06/15 18:35:32;;;;;;;7.05;6.35;;;;;;;;;;10063923;29;20051;-70
2023/06/15 18:40:28;;;;;;;6.70;5.97;;;;;;;;;;10062441;29;20721;-71
2023/06/15 18:45:25;;;;;;;6.72;6.13;;;;;;;;;;10060137;29;20086;-71
2023/06/15 18:50:21;;;;;;;6.80;6.10;;;;;;;;;;10046578;28;20142;-71
2023/06/15 18:55:17;;;;;;;6.85;5.93;;;;;;;;;;10067870;29;20520;-70
2023/06/15 19:00:14;;;;;;;7.10;5.72;;;;;;;;;;10068575;28;20494;-71
2023/06/15 19:05:13;;;;;;;6.43;5.82;;;;;;;;;;10066632;29;20433;-70
2023/06/15 19:10:09;;;;;;;7.68;6.88;;;;;;;;;;10056457;28;20444;-72
2023/06/15 19:15:06;;;;;;;6.25;5.65;;;;;;;;;;10061199;29;20051;-71
2023/06/15 19:20:06;;;;;;;7.30;5.85;;;;;;;;;;10046683;28;20130;-71
2023/06/15 19:25:02;;;;;;;6.72;5.60;;;;;;;;;;10066319;29;20102;-71
2023/06/15 19:29:59;;;;;;;6.10;5.50;;;;;;;;;;10068034;28;20521;-69
2023/06/15 19:34:55;;;;;;;9.18;5.72;;;;;;;;;;10061305;29;20039;-70
2023/06/15 19:39:51;;;;;;;6.53;5.75;;;;;;;;;;10065613;29;20610;-72
2023/06/15 19:44:48;;;;;;;6.63;6.03;;;;;;;;;;10069421;29;20079;-70
2023/06/15 19:49:44;;;;;;;6.70;5.95;;;;;;;;;;10059476;29;20098;-71
2023/06/15 19:54:41;;;;;;;6.78;5.57;;;;;;;;;;10051645;29;20106;-74
2023/06/15 19:59:37;;;;;;;7.05;5.82;;;;;;;;;;10059173;29;20105;-68
2023/06/15 20:04:35;;;;;;;9.88;7.20;;;;;;;;;;10062775;28;20050;-69
2023/06/15 20:09:31;;;;;;;7.55;5.93;;;;;;;;;;10055694;29;20035;-68
2023/06/15 20:14:27;;;;;;;6.60;5.88;;;;;;;;;;10066238;29;20609;-71
2023/06/15 20:19:24;;;;;;;7.18;5.57;;;;;;;;;;10062801;29;20074;-71
2023/06/15 20:24:20;;;;;;;10.00;6.03;;;;;;;;;;10062028;28;20609;-67
2023/06/15 20:29:16;;;;;;;6.68;5.32;;;;;;;;;;10062182;29;20051;-67
2023/06/15 20:34:13;;;;;;;7.90;5.60;;;;;;;;;;10060599;29;20058;-67
2023/06/15 20:39:14;;;;;;;7.65;6.05;;;;;;;;;;10065099;29;20717;-67
2023/06/15 20:44:11;;;;;;;6.43;5.60;;;;;;;;;;10061470;28;20102;-67
2023/06/15 20:49:07;;;;;;;7.63;6.10;;;;;;;;;;10054255;28;20043;-68
2023/06/15 20:54:04;;;;;;;9.25;6.30;;;;;;;;;;10065858;29;20039;-67
2023/06/15 20:59:00;;;;;;;7.32;5.80;;;;;;;;;;10060056;29;20074;-67
2023/06/15 21:03:57;;;;;;;9.80;5.60;;;;;;;;;;10056084;29;20043;-67
2023/06/15 21:08:55;;;;;;;7.15;5.53;;;;;;;;;;10058788;28;20048;-67
2023/06/15 21:13:51;;;;;;;7.72;4.90;;;;;;;;;;10069205;28;20055;-67
2023/06/15 21:18:47;;;;;;;7.85;5.20;;;;;;;;;;10062854;29;20058;-66
2023/06/15 21:23:45;;;;;;;7.85;5.20;;;;;;;;;;10069889;29;20051;-67
2023/06/15 21:28:41;;;;;;;10.20;5.45;;;;;;;;;;10067290;28;20048;-67
2023/06/15 21:33:37;;;;;;;8.70;6.05;;;;;;;;;;10073265;29;20051;-68
2023/06/15 21:38:34;;;;;;;9.63;6.95;;;;;;;;;;10073745;29;20465;-67
2023/06/15 21:43:31;;;;;;;8.57;6.57;;;;;;;;;;10073391;28;20070;-68
2023/06/15 21:48:27;;;;;;;9.65;6.70;;;;;;;;;;10072764;29;20405;-68
2023/06/15 21:53:23;;;;;;;9.60;6.65;;;;;;;;;;10068471;29;20075;-68
2023/06/15 21:58:20;;;;;;;10.38;6.35;;;;;;;;;;10071741;29;20047;-68
2023/06/15 22:03:16;;;;;;;8.55;5.65;;;;;;;;;;10072168;29;20052;-68
2023/06/15 22:08:13;;;;;;;6.72;5.50;;;;;;;;;;10062128;29;20598;-68
2023/06/15 22:13:09;;;;;;;8.63;5.80;;;;;;;;;;10071025;29;20044;-68
2023/06/15 22:18:06;;;;;;;11.10;5.13;;;;;;;;;;10064181;28;20093;-67
2023/06/15 22:23:02;;;;;;;11.00;5.88;;;;;;;;;;10071912;28;20043;-67
2023/06/15 22:27:59;;;;;;;10.60;5.70;;;;;;;;;;10057388;29;20513;-68
2023/06/15 22:32:55;;;;;;;7.85;4.65;;;;;;;;;;10059232;29;20545;-68
2023/06/15 22:37:53;;;;;;;13.85;5.40;;;;;;;;;;10065861;29;20051;-67
2023/06/15 22:42:49;;;;;;;9.77;4.53;;;;;;;;;;10065978;29;20501;-67
2023/06/15 22:47:47;;;;;;;8.70;4.82;;;;;;;;;;10067955;29;20082;-67
2023/06/15 22:52:44;;;;;;;8.48;4.70;;;;;;;;;;10066354;29;20436;-67
2023/06/15 22:57:41;;;;;;;7.00;4.95;;;;;;;;;;10045822;29;20493;-67
2023/06/15 23:02:37;;;;;;;6.60;4.70;;;;;;;;;;10067729;29;20051;-68
2023/06/15 23:07:34;;;;;;;6.28;4.65;;;;;;;;;;10020738;28;1039807;-69
2023/06/15 23:12:32;;;;;;;7.10;5.10;;;;;;;;;;10066634;28;20501;-69
2023/06/15 23:17:29;;;;;;;7.07;4.63;;;;;;;;;;10058706;29;20113;-67
2023/06/15 23:22:26;;;;;;;7.15;5.20;;;;;;;;;;10049273;29;20121;-67
2023/06/15 23:27:23;;;;;;;7.63;5.57;;;;;;;;;;10063257;29;20510;-67
2023/06/15 23:32:20;;;;;;;6.32;5.00;;;;;;;;;;10061198;29;20054;-67
2023/06/15 23:37:16;;;;;;;6.45;5.22;;;;;;;;;;10056270;28;20505;-67
2023/06/15 23:42:12;;;;;;;8.98;5.20;;;;;;;;;;10069439;29;20556;-67
2023/06/15 23:47:09;;;;;;;5.70;4.70;;;;;;;;;;10065942;29;20516;-67
2023/06/15 23:52:08;;;;;;;6.45;5.00;;;;;;;;;;10046952;28;20121;-67
2023/06/15 23:57:04;;;;;;;7.53;4.88;;;;;;;;;;10068462;29;20493;-67
